Multi-Engine Rating & Complex Airplane Endorsement

Multi-Engine Rating

Earn your multi-engine rating in our Piper Seminole PA-44-180. Our experienced instructors will train you to safely and skillfully
fly multi-engine aircraft, preparing for you more advanced training and opportunities. If you have your private pilot’s license, and
are ready to advance your training, we’re ready to help you achieve your goals.

Call us today at 706-595-1300 to get started.

Complex Airplane Endorsement

Learn to fly aircraft with retractable landing gear, controllable flaps, and a controllable propeller using our Piper Seminole PA-44-180 airplane.

You can earn your complex endorsement, or combine your training to earn your complex endorsement and multi-engine rating.

Call today to learn more. 706-595-1300.

wallpaper-sv1x83r2z6-chainpixel.com

NOAA Weather

KHQU

Last Updated on May 31 2023, 12:15 am EDT

Current Conditions: Light Rain

NOAA Icon

Temp: 69°F

Wind: NE at 6mph

Humidity: 87%

Dewpoint: 65.5°F

Your 5-Day Forecast at a Glance

KHQU Metar

KHQU 310435Z AUTO 04006KT 7SM -RA BKN039 BKN050 OVC065 20/19 A3003 RMK AO2 P0002 T02030192